sensor_id;sensor_type;location;lat;lon;timestamp;pressure;altitude;pressure_sealevel;temperature;humidity
50356;BME280;36264;51.296;-0.602;2022-09-09T00:04:31;99994.03;;;14.50;100.00
50356;BME280;36264;51.296;-0.602;2022-09-09T00:12:27;99992.06;;;14.54;100.00
50356;BME280;36264;51.296;-0.602;2022-09-09T00:15:01;99996.38;;;14.55;100.00
50356;BME280;36264;51.296;-0.602;2022-09-09T00:20:21;99998.75;;;14.60;100.00
50356;BME280;36264;51.296;-0.602;2022-09-09T00:22:59;99988.19;;;14.61;100.00
50356;BME280;36264;51.296;-0.602;2022-09-09T00:28:22;99990.63;;;14.64;100.00
50356;BME280;36264;51.296;-0.602;2022-09-09T00:30:48;99993.25;;;14.64;100.00
50356;BME280;36264;51.296;-0.602;2022-09-09T00:33:16;99990.53;;;14.66;100.00
50356;BME280;36264;51.296;-0.602;2022-09-09T00:35:52;99989.72;;;14.65;100.00
50356;BME280;36264;51.296;-0.602;2022-09-09T00:38:41;99990.53;;;14.66;100.00
50356;BME280;36264;51.296;-0.602;2022-09-09T00:44:30;99991.38;;;14.66;100.00
50356;BME280;36264;51.296;-0.602;2022-09-09T00:58:18;100007.88;;;14.67;100.00
50356;BME280;36264;51.296;-0.602;2022-09-09T01:00:46;99999.94;;;14.68;100.00
50356;BME280;36264;51.296;-0.602;2022-09-09T01:09:05;99990.06;;;14.74;100.00
50356;BME280;36264;51.296;-0.602;2022-09-09T01:16:46;99988.66;;;14.68;100.00
50356;BME280;36264;51.296;-0.602;2022-09-09T01:19:33;99981.09;;;14.63;100.00
50356;BME280;36264;51.296;-0.602;2022-09-09T01:22:20;99979.34;;;14.64;100.00
50356;BME280;36264;51.296;-0.602;2022-09-09T01:27:54;99982.69;;;14.66;100.00
50356;BME280;36264;51.296;-0.602;2022-09-09T01:30:22;99981.28;;;14.60;100.00
50356;BME280;36264;51.296;-0.602;2022-09-09T01:32:54;99983.94;;;14.59;100.00
50356;BME280;36264;51.296;-0.602;2022-09-09T01:35:32;99982.38;;;14.56;100.00
50356;BME280;36264;51.296;-0.602;2022-09-09T01:38:01;99988.88;;;14.49;100.00
50356;BME280;36264;51.296;-0.602;2022-09-09T01:40:26;99988.25;;;14.45;100.00
50356;BME280;36264;51.296;-0.602;2022-09-09T01:42:52;99993.00;;;14.39;100.00
50356;BME280;36264;51.296;-0.602;2022-09-09T01:45:19;99984.75;;;14.30;100.00
50356;BME280;36264;51.296;-0.602;2022-09-09T01:47:45;99989.97;;;14.30;100.00
50356;BME280;36264;51.296;-0.602;2022-09-09T01:50:13;99992.88;;;14.26;100.00
50356;BME280;36264;51.296;-0.602;2022-09-09T01:52:40;99988.84;;;14.20;100.00
50356;BME280;36264;51.296;-0.602;2022-09-09T01:55:07;99991.53;;;14.19;100.00
50356;BME280;36264;51.296;-0.602;2022-09-09T02:00:10;99996.84;;;14.17;100.00
50356;BME280;36264;51.296;-0.602;2022-09-09T02:08:03;100004.41;;;14.22;100.00
50356;BME280;36264;51.296;-0.602;2022-09-09T02:10:37;100009.56;;;14.23;100.00
50356;BME280;36264;51.296;-0.602;2022-09-09T02:13:17;99998.94;;;14.26;100.00
50356;BME280;36264;51.296;-0.602;2022-09-09T02:15:52;100003.16;;;14.29;100.00
50356;BME280;36264;51.296;-0.602;2022-09-09T02:18:24;100008.25;;;14.30;100.00
50356;BME280;36264;51.296;-0.602;2022-09-09T02:20:52;100000.41;;;14.30;100.00
50356;BME280;36264;51.296;-0.602;2022-09-09T02:23:19;100001.19;;;14.32;100.00
50356;BME280;36264;51.296;-0.602;2022-09-09T02:25:45;100007.16;;;14.35;100.00
50356;BME280;36264;51.296;-0.602;2022-09-09T02:28:11;100009.78;;;14.35;100.00
50356;BME280;36264;51.296;-0.602;2022-09-09T02:30:40;99997.53;;;14.35;100.00
50356;BME280;36264;51.296;-0.602;2022-09-09T02:33:09;99999.22;;;14.36;100.00
50356;BME280;36264;51.296;-0.602;2022-09-09T02:35:38;100004.44;;;14.36;100.00
50356;BME280;36264;51.296;-0.602;2022-09-09T02:38:10;100004.38;;;14.38;100.00
50356;BME280;36264;51.296;-0.602;2022-09-09T02:40:37;100000.81;;;14.39;100.00
50356;BME280;36264;51.296;-0.602;2022-09-09T02:43:03;99997.34;;;14.38;100.00
50356;BME280;36264;51.296;-0.602;2022-09-09T02:45:39;99998.97;;;14.41;100.00
50356;BME280;36264;51.296;-0.602;2022-09-09T02:48:32;100000.56;;;14.43;100.00
50356;BME280;36264;51.296;-0.602;2022-09-09T02:51:25;100005.78;;;14.43;100.00
50356;BME280;36264;51.296;-0.602;2022-09-09T02:54:04;99997.78;;;14.46;100.00
50356;BME280;36264;51.296;-0.602;2022-09-09T02:56:40;100003.00;;;14.46;100.00
50356;BME280;36264;51.296;-0.602;2022-09-09T02:59:07;100005.41;;;14.49;100.00
50356;BME280;36264;51.296;-0.602;2022-09-09T03:01:33;100010.53;;;14.51;100.00
50356;BME280;36264;51.296;-0.602;2022-09-09T03:03:58;100007.09;;;14.50;100.00
50356;BME280;36264;51.296;-0.602;2022-09-09T03:06:23;100015.84;;;14.49;100.00
50356;BME280;36264;51.296;-0.602;2022-09-09T03:08:49;100010.63;;;14.49;100.00
50356;BME280;36264;51.296;-0.602;2022-09-09T03:11:16;100008.88;;;14.50;100.00
50356;BME280;36264;51.296;-0.602;2022-09-09T03:13:41;100014.94;;;14.50;100.00
50356;BME280;36264;51.296;-0.602;2022-09-09T03:16:06;100022.22;;;14.45;100.00
50356;BME280;36264;51.296;-0.602;2022-09-09T03:18:32;100022.47;;;14.41;100.00
50356;BME280;36264;51.296;-0.602;2022-09-09T03:20:57;100018.16;;;14.40;100.00
50356;BME280;36264;51.296;-0.602;2022-09-09T03:23:24;100026.97;;;14.39;100.00
50356;BME280;36264;51.296;-0.602;2022-09-09T03:25:50;100017.44;;;14.38;100.00
50356;BME280;36264;51.296;-0.602;2022-09-09T03:28:17;100031.22;;;14.40;100.00
50356;BME280;36264;51.296;-0.602;2022-09-09T03:30:42;100036.38;;;14.41;100.00
50356;BME280;36264;51.296;-0.602;2022-09-09T03:33:08;100040.75;;;14.41;100.00
50356;BME280;36264;51.296;-0.602;2022-09-09T03:35:33;100041.59;;;14.41;100.00
50356;BME280;36264;51.296;-0.602;2022-09-09T03:37:58;100040.66;;;14.42;100.00
50356;BME280;36264;51.296;-0.602;2022-09-09T03:40:26;100045.16;;;14.40;100.00
50356;BME280;36264;51.296;-0.602;2022-09-09T03:42:51;100045.41;;;14.36;100.00
50356;BME280;36264;51.296;-0.602;2022-09-09T03:45:16;100050.56;;;14.37;100.00
50356;BME280;36264;51.296;-0.602;2022-09-09T03:47:42;100047.78;;;14.40;100.00
50356;BME280;36264;51.296;-0.602;2022-09-09T03:50:08;100053.00;;;14.40;100.00
50356;BME280;36264;51.296;-0.602;2022-09-09T03:52:37;100057.19;;;14.43;100.00
50356;BME280;36264;51.296;-0.602;2022-09-09T03:55:03;100064.09;;;14.44;100.00
50356;BME280;36264;51.296;-0.602;2022-09-09T03:57:28;100066.63;;;14.45;100.00
50356;BME280;36264;51.296;-0.602;2022-09-09T03:59:55;100070.06;;;14.46;100.00
50356;BME280;36264;51.296;-0.602;2022-09-09T04:02:20;100065.69;;;14.46;100.00
50356;BME280;36264;51.296;-0.602;2022-09-09T04:04:46;100067.44;;;14.46;100.00
50356;BME280;36264;51.296;-0.602;2022-09-09T04:07:11;100071.84;;;14.45;100.00
50356;BME280;36264;51.296;-0.602;2022-09-09T04:09:37;100068.50;;;14.43;100.00
50356;BME280;36264;51.296;-0.602;2022-09-09T04:12:03;100071.19;;;14.42;100.00
50356;BME280;36264;51.296;-0.602;2022-09-09T04:14:29;100082.56;;;14.41;100.00
50356;BME280;36264;51.296;-0.602;2022-09-09T04:16:55;100083.75;;;14.35;100.00
50356;BME280;36264;51.296;-0.602;2022-09-09T04:19:22;100079.56;;;14.32;100.00
50356;BME280;36264;51.296;-0.602;2022-09-09T04:21:48;100079.66;;;14.31;100.00
50356;BME280;36264;51.296;-0.602;2022-09-09T04:24:16;100093.38;;;14.35;100.00
50356;BME280;36264;51.296;-0.602;2022-09-09T04:26:41;100085.44;;;14.36;100.00
50356;BME280;36264;51.296;-0.602;2022-09-09T04:29:07;100089.75;;;14.37;100.00
50356;BME280;36264;51.296;-0.602;2022-09-09T04:31:33;100094.88;;;14.39;100.00
50356;BME280;36264;51.296;-0.602;2022-09-09T04:33:58;100100.09;;;14.39;100.00
50356;BME280;36264;51.296;-0.602;2022-09-09T04:36:27;100094.97;;;14.37;100.00
50356;BME280;36264;51.296;-0.602;2022-09-09T04:38:52;100097.75;;;14.34;100.00
50356;BME280;36264;51.296;-0.602;2022-09-09T04:41:18;100096.16;;;14.31;100.00
50356;BME280;36264;51.296;-0.602;2022-09-09T04:43:43;100099.59;;;14.32;100.00
50356;BME280;36264;51.296;-0.602;2022-09-09T04:46:09;100103.91;;;14.33;100.00
50356;BME280;36264;51.296;-0.602;2022-09-09T04:48:34;100109.88;;;14.35;100.00
50356;BME280;36264;51.296;-0.602;2022-09-09T04:51:02;100098.50;;;14.36;100.00
50356;BME280;36264;51.296;-0.602;2022-09-09T04:53:30;100101.94;;;14.37;100.00
50356;BME280;36264;51.296;-0.602;2022-09-09T04:56:10;100109.69;;;14.38;100.00
50356;BME280;36264;51.296;-0.602;2022-09-09T04:58:36;100107.94;;;14.39;100.00
50356;BME280;36264;51.296;-0.602;2022-09-09T05:01:13;100106.81;;;14.43;100.00
50356;BME280;36264;51.296;-0.602;2022-09-09T05:03:39;100117.28;;;14.43;100.00
50356;BME280;36264;51.296;-0.602;2022-09-09T05:06:09;100117.09;;;14.46;100.00
50356;BME280;36264;51.296;-0.602;2022-09-09T05:08:37;100120.56;;;14.46;100.00
50356;BME280;36264;51.296;-0.602;2022-09-09T05:11:12;100125.81;;;14.46;100.00
50356;BME280;36264;51.296;-0.602;2022-09-09T05:13:38;100124.75;;;14.49;100.00
50356;BME280;36264;51.296;-0.602;2022-09-09T05:16:03;100130.72;;;14.51;100.00
50356;BME280;36264;51.296;-0.602;2022-09-09T05:18:29;100124.69;;;14.50;100.00
50356;BME280;36264;51.296;-0.602;2022-09-09T05:20:58;100121.88;;;14.54;100.00
50356;BME280;36264;51.296;-0.602;2022-09-09T05:23:24;100134.88;;;14.55;100.00
50356;BME280;36264;51.296;-0.602;2022-09-09T05:25:56;100134.13;;;14.53;100.00
50356;BME280;36264;51.296;-0.602;2022-09-09T05:28:23;100135.69;;;14.56;100.00
50356;BME280;36264;51.296;-0.602;2022-09-09T05:31:03;100132.25;;;14.55;100.00
50356;BME280;36264;51.296;-0.602;2022-09-09T05:33:31;100137.56;;;14.54;100.00
50356;BME280;36264;51.296;-0.602;2022-09-09T05:36:08;100135.78;;;14.54;100.00
50356;BME280;36264;51.296;-0.602;2022-09-09T05:38:34;100144.66;;;14.52;100.00
50356;BME280;36264;51.296;-0.602;2022-09-09T05:41:01;100138.56;;;14.51;100.00
50356;BME280;36264;51.296;-0.602;2022-09-09T05:43:28;100136.91;;;14.50;100.00
50356;BME280;36264;51.296;-0.602;2022-09-09T05:46:04;100146.31;;;14.53;100.00
50356;BME280;36264;51.296;-0.602;2022-09-09T05:48:34;100148.94;;;14.53;100.00
50356;BME280;36264;51.296;-0.602;2022-09-09T05:51:01;100153.34;;;14.52;100.00
50356;BME280;36264;51.296;-0.602;2022-09-09T05:53:28;100150.72;;;14.52;100.00
50356;BME280;36264;51.296;-0.602;2022-09-09T05:58:26;100155.94;;;14.52;100.00
50356;BME280;36264;51.296;-0.602;2022-09-09T06:00:52;100159.47;;;14.51;100.00
50356;BME280;36264;51.296;-0.602;2022-09-09T06:03:19;100164.69;;;14.51;100.00
50356;BME280;36264;51.296;-0.602;2022-09-09T06:05:57;100169.75;;;14.54;100.00
50356;BME280;36264;51.296;-0.602;2022-09-09T06:08:22;100177.69;;;14.53;100.00
50356;BME280;36264;51.296;-0.602;2022-09-09T06:10:47;100173.50;;;14.50;100.00
50356;BME280;36264;51.296;-0.602;2022-09-09T06:13:13;100169.28;;;14.47;100.00
50356;BME280;36264;51.296;-0.602;2022-09-09T06:15:38;100175.34;;;14.48;100.00
50356;BME280;36264;51.296;-0.602;2022-09-09T06:18:03;100175.44;;;14.46;100.00
50356;BME280;36264;51.296;-0.602;2022-09-09T06:20:29;100190.16;;;14.47;100.00
50356;BME280;36264;51.296;-0.602;2022-09-09T06:22:55;100184.28;;;14.44;100.00
50356;BME280;36264;51.296;-0.602;2022-09-09T06:25:21;100180.22;;;14.38;100.00
50356;BME280;36264;51.296;-0.602;2022-09-09T06:27:49;100195.56;;;14.44;100.00
50356;BME280;36264;51.296;-0.602;2022-09-09T06:30:15;100194.56;;;14.47;100.00
50356;BME280;36264;51.296;-0.602;2022-09-09T06:32:42;100198.09;;;14.46;100.00
50356;BME280;36264;51.296;-0.602;2022-09-09T06:35:08;100194.56;;;14.47;100.00
50356;BME280;36264;51.296;-0.602;2022-09-09T06:37:33;100199.63;;;14.50;100.00
50356;BME280;36264;51.296;-0.602;2022-09-09T06:39:58;100203.72;;;14.54;100.00
50356;BME280;36264;51.296;-0.602;2022-09-09T06:42:24;100201.88;;;14.56;100.00
50356;BME280;36264;51.296;-0.602;2022-09-09T06:44:49;100207.88;;;14.58;100.00
50356;BME280;36264;51.296;-0.602;2022-09-09T06:47:15;100218.19;;;14.61;100.00
50356;BME280;36264;51.296;-0.602;2022-09-09T06:49:40;100212.19;;;14.59;100.00
50356;BME280;36264;51.296;-0.602;2022-09-09T06:52:05;100215.47;;;14.63;100.00
50356;BME280;36264;51.296;-0.602;2022-09-09T06:54:31;100219.00;;;14.62;100.00
50356;BME280;36264;51.296;-0.602;2022-09-09T06:56:56;100218.00;;;14.64;100.00
50356;BME280;36264;51.296;-0.602;2022-09-09T06:59:22;100223.25;;;14.64;100.00
50356;BME280;36264;51.296;-0.602;2022-09-09T07:01:47;100230.34;;;14.62;100.00
50356;BME280;36264;51.296;-0.602;2022-09-09T07:04:13;100233.03;;;14.61;100.00
50356;BME280;36264;51.296;-0.602;2022-09-09T07:06:44;100234.59;;;14.63;100.00
50356;BME280;36264;51.296;-0.602;2022-09-09T07:09:10;100241.78;;;14.60;100.00
50356;BME280;36264;51.296;-0.602;2022-09-09T07:11:41;100235.56;;;14.62;100.00
50356;BME280;36264;51.296;-0.602;2022-09-09T07:14:08;100236.31;;;14.64;100.00
50356;BME280;36264;51.296;-0.602;2022-09-09T07:16:34;100232.88;;;14.64;100.00
50356;BME280;36264;51.296;-0.602;2022-09-09T07:19:02;100231.06;;;14.64;100.00
50356;BME280;36264;51.296;-0.602;2022-09-09T07:21:29;100243.97;;;14.67;100.00
50356;BME280;36264;51.296;-0.602;2022-09-09T07:23:56;100235.00;;;14.72;100.00
50356;BME280;36264;51.296;-0.602;2022-09-09T07:26:24;100241.69;;;14.77;100.00
50356;BME280;36264;51.296;-0.602;2022-09-09T07:28:50;100247.56;;;14.81;100.00
50356;BME280;36264;51.296;-0.602;2022-09-09T07:31:18;100245.03;;;14.79;100.00
50356;BME280;36264;51.296;-0.602;2022-09-09T07:33:45;100244.97;;;14.81;100.00
50356;BME280;36264;51.296;-0.602;2022-09-09T07:36:16;100250.97;;;14.83;100.00
50356;BME280;36264;51.296;-0.602;2022-09-09T07:38:48;100257.69;;;14.87;100.00
50356;BME280;36264;51.296;-0.602;2022-09-09T07:41:25;100261.03;;;14.89;100.00
50356;BME280;36264;51.296;-0.602;2022-09-09T07:43:51;100256.59;;;14.91;100.00
50356;BME280;36264;51.296;-0.602;2022-09-09T07:46:20;100258.94;;;14.96;100.00
50356;BME280;36264;51.296;-0.602;2022-09-09T07:48:47;100261.31;;;15.00;100.00
50356;BME280;36264;51.296;-0.602;2022-09-09T07:51:17;100264.09;;;14.97;100.00
50356;BME280;36264;51.296;-0.602;2022-09-09T07:53:46;100268.97;;;15.03;100.00
50356;BME280;36264;51.296;-0.602;2022-09-09T07:56:14;100267.84;;;15.08;100.00
50356;BME280;36264;51.296;-0.602;2022-09-09T07:58:42;100265.81;;;15.13;100.00
50356;BME280;36264;51.296;-0.602;2022-09-09T08:01:18;100280.41;;;15.17;100.00
50356;BME280;36264;51.296;-0.602;2022-09-09T08:03:55;100285.63;;;15.17;100.00
50356;BME280;36264;51.296;-0.602;2022-09-09T08:06:21;100294.31;;;15.17;100.00
50356;BME280;36264;51.296;-0.602;2022-09-09T08:08:50;100293.41;;;15.18;100.00
50356;BME280;36264;51.296;-0.602;2022-09-09T08:11:15;100290.88;;;15.17;100.00
50356;BME280;36264;51.296;-0.602;2022-09-09T08:13:42;100299.53;;;15.17;100.00
50356;BME280;36264;51.296;-0.602;2022-09-09T08:16:17;100299.53;;;15.17;100.00
50356;BME280;36264;51.296;-0.602;2022-09-09T08:18:42;100302.94;;;15.19;100.00
50356;BME280;36264;51.296;-0.602;2022-09-09T08:21:15;100305.25;;;15.24;100.00
50356;BME280;36264;51.296;-0.602;2022-09-09T08:23:44;100314.63;;;15.28;100.00
50356;BME280;36264;51.296;-0.602;2022-09-09T08:28:40;100314.81;;;15.25;100.00
50356;BME280;36264;51.296;-0.602;2022-09-09T08:31:16;100323.50;;;15.26;100.00
50356;BME280;36264;51.296;-0.602;2022-09-09T08:33:43;100325.28;;;15.25;100.00
50356;BME280;36264;51.296;-0.602;2022-09-09T08:36:16;100322.81;;;15.22;100.00
50356;BME280;36264;51.296;-0.602;2022-09-09T08:38:42;100339.47;;;15.21;100.00
50356;BME280;36264;51.296;-0.602;2022-09-09T08:58:31;100364.19;;;15.15;100.00
50356;BME280;36264;51.296;-0.602;2022-09-09T09:09:00;100372.38;;;15.25;100.00
50356;BME280;36264;51.296;-0.602;2022-09-09T09:11:26;100365.25;;;15.27;100.00
50356;BME280;36264;51.296;-0.602;2022-09-09T09:13:59;100366.03;;;15.29;100.00
50356;BME280;36264;51.296;-0.602;2022-09-09T09:16:34;100379.44;;;15.39;100.00
50356;BME280;36264;51.296;-0.602;2022-09-09T09:19:02;100368.19;;;15.53;100.00
50356;BME280;36264;51.296;-0.602;2022-09-09T09:24:51;100380.84;;;15.91;100.00
50356;BME280;36264;51.296;-0.602;2022-09-09T09:27:47;100381.69;;;16.06;100.00
50356;BME280;36264;51.296;-0.602;2022-09-09T09:30:19;100399.56;;;16.14;100.00
50356;BME280;36264;51.296;-0.602;2022-09-09T09:33:15;100391.72;;;16.14;100.00
50356;BME280;36264;51.296;-0.602;2022-09-09T09:35:42;100393.19;;;16.18;100.00
50356;BME280;36264;51.296;-0.602;2022-09-09T09:38:35;100398.75;;;16.13;100.00
50356;BME280;36264;51.296;-0.602;2022-09-09T09:41:00;100396.41;;;16.08;100.00
50356;BME280;36264;51.296;-0.602;2022-09-09T09:43:27;100400.78;;;16.08;100.00
50356;BME280;36264;51.296;-0.602;2022-09-09T09:45:53;100407.16;;;16.04;100.00
50356;BME280;36264;51.296;-0.602;2022-09-09T09:48:18;100413.50;;;16.00;100.00
50356;BME280;36264;51.296;-0.602;2022-09-09T09:50:51;100415.91;;;15.88;100.00
50356;BME280;36264;51.296;-0.602;2022-09-09T09:53:37;100413.63;;;15.82;100.00
50356;BME280;36264;51.296;-0.602;2022-09-09T09:56:06;100426.72;;;15.82;100.00
50356;BME280;36264;51.296;-0.602;2022-09-09T09:58:49;100418.88;;;15.82;100.00
50356;BME280;36264;51.296;-0.602;2022-09-09T10:01:34;100423.84;;;15.87;100.00
50356;BME280;36264;51.296;-0.602;2022-09-09T10:06:42;100433.78;;;15.96;100.00
50356;BME280;36264;51.296;-0.602;2022-09-09T10:09:27;100426.59;;;16.00;100.00
50356;BME280;36264;51.296;-0.602;2022-09-09T10:12:05;100429.38;;;15.97;100.00
50356;BME280;36264;51.296;-0.602;2022-09-09T10:14:48;100433.88;;;15.94;100.00
50356;BME280;36264;51.296;-0.602;2022-09-09T10:17:40;100432.66;;;16.00;100.00
50356;BME280;36264;51.296;-0.602;2022-09-09T10:22:35;100434.56;;;16.12;100.00
50356;BME280;36264;51.296;-0.602;2022-09-09T10:33:07;100445.75;;;16.45;100.00
50356;BME280;36264;51.296;-0.602;2022-09-09T10:36:02;100451.66;;;16.48;100.00
50356;BME280;36264;51.296;-0.602;2022-09-09T10:38:39;100449.59;;;16.54;100.00
50356;BME280;36264;51.296;-0.602;2022-09-09T10:57:29;100451.47;;;16.37;100.00
50356;BME280;36264;51.296;-0.602;2022-09-09T10:59:59;100456.13;;;16.32;100.00
50356;BME280;36264;51.296;-0.602;2022-09-09T11:02:31;100457.50;;;16.23;100.00
50356;BME280;36264;51.296;-0.602;2022-09-09T11:07:36;100451.44;;;16.23;100.00
50356;BME280;36264;51.296;-0.602;2022-09-09T11:10:19;100464.84;;;16.33;100.00
50356;BME280;36264;51.296;-0.602;2022-09-09T11:12:50;100455.66;;;16.40;100.00
50356;BME280;36264;51.296;-0.602;2022-09-09T11:15:42;100462.78;;;16.52;100.00
50356;BME280;36264;51.296;-0.602;2022-09-09T11:18:14;100466.19;;;16.54;100.00
50356;BME280;36264;51.296;-0.602;2022-09-09T11:20:42;100461.50;;;16.59;100.00
50356;BME280;36264;51.296;-0.602;2022-09-09T11:23:41;100462.03;;;16.64;100.00
50356;BME280;36264;51.296;-0.602;2022-09-09T11:26:17;100467.66;;;16.73;100.00
50356;BME280;36264;51.296;-0.602;2022-09-09T11:29:06;100466.25;;;16.81;100.00
50356;BME280;36264;51.296;-0.602;2022-09-09T11:37:39;100472.56;;;16.93;100.00
50356;BME280;36264;51.296;-0.602;2022-09-09T11:40:20;100462.88;;;16.79;100.00
50356;BME280;36264;51.296;-0.602;2022-09-09T11:42:48;100470.31;;;16.87;100.00
50356;BME280;36264;51.296;-0.602;2022-09-09T11:45:24;100473.38;;;16.94;100.00
50356;BME280;36264;51.296;-0.602;2022-09-09T11:47:57;100471.91;;;16.90;100.00
50356;BME280;36264;51.296;-0.602;2022-09-09T11:52:49;100484.44;;;16.70;100.00
50356;BME280;36264;51.296;-0.602;2022-09-09T12:00:36;100495.22;;;15.90;100.00
50356;BME280;36264;51.296;-0.602;2022-09-09T12:03:03;100496.84;;;15.77;100.00
50356;BME280;36264;51.296;-0.602;2022-09-09T12:05:41;100494.16;;;15.79;100.00
50356;BME280;36264;51.296;-0.602;2022-09-09T12:08:10;100484.44;;;15.81;100.00
50356;BME280;36264;51.296;-0.602;2022-09-09T12:10:39;100488.47;;;15.86;100.00
50356;BME280;36264;51.296;-0.602;2022-09-09T12:13:25;100490.66;;;15.94;100.00
50356;BME280;36264;51.296;-0.602;2022-09-09T12:15:53;100487.50;;;16.03;100.00
50356;BME280;36264;51.296;-0.602;2022-09-09T12:18:35;100493.63;;;16.18;100.00
50356;BME280;36264;51.296;-0.602;2022-09-09T12:23:55;100488.72;;;16.42;100.00
50356;BME280;36264;51.296;-0.602;2022-09-09T12:26:38;100481.31;;;16.49;100.00
50356;BME280;36264;51.296;-0.602;2022-09-09T12:29:27;100485.53;;;16.52;100.00
50356;BME280;36264;51.296;-0.602;2022-09-09T12:32:13;100490.78;;;16.52;100.00
50356;BME280;36264;51.296;-0.602;2022-09-09T12:35:02;100495.56;;;16.45;100.00
50356;BME280;36264;51.296;-0.602;2022-09-09T12:37:35;100493.88;;;16.44;100.00
50356;BME280;36264;51.296;-0.602;2022-09-09T12:42:29;100501.47;;;16.48;100.00
50356;BME280;36264;51.296;-0.602;2022-09-09T12:44:58;100507.44;;;16.51;100.00
50356;BME280;36264;51.296;-0.602;2022-09-09T12:47:48;100501.00;;;16.56;100.00
50356;BME280;36264;51.296;-0.602;2022-09-09T12:50:24;100497.91;;;16.64;100.00
50356;BME280;36264;51.296;-0.602;2022-09-09T12:52:53;100499.03;;;16.74;100.00
50356;BME280;36264;51.296;-0.602;2022-09-09T12:55:25;100496.44;;;16.89;100.00
50356;BME280;36264;51.296;-0.602;2022-09-09T12:57:53;100496.81;;;16.97;100.00
50356;BME280;36264;51.296;-0.602;2022-09-09T13:00:21;100503.19;;;17.07;100.00
50356;BME280;36264;51.296;-0.602;2022-09-09T13:02:53;100507.00;;;17.16;100.00
50356;BME280;36264;51.296;-0.602;2022-09-09T13:05:37;100501.19;;;17.25;100.00
50356;BME280;36264;51.296;-0.602;2022-09-09T13:08:05;100499.41;;;17.26;100.00
50356;BME280;36264;51.296;-0.602;2022-09-09T13:10:40;100507.66;;;17.34;100.00
50356;BME280;36264;51.296;-0.602;2022-09-09T13:13:15;100503.78;;;17.39;100.00
50356;BME280;36264;51.296;-0.602;2022-09-09T13:15:49;100510.56;;;17.29;100.00
50356;BME280;36264;51.296;-0.602;2022-09-09T13:18:16;100505.41;;;17.28;100.00
50356;BME280;36264;51.296;-0.602;2022-09-09T13:20:48;100498.44;;;17.41;100.00
50356;BME280;36264;51.296;-0.602;2022-09-09T13:23:15;100512.09;;;17.61;100.00
50356;BME280;36264;51.296;-0.602;2022-09-09T13:25:53;100513.44;;;17.66;100.00
50356;BME280;36264;51.296;-0.602;2022-09-09T13:28:21;100515.63;;;17.60;100.00
50356;BME280;36264;51.296;-0.602;2022-09-09T13:33:31;100509.28;;;17.49;100.00
50356;BME280;36264;51.296;-0.602;2022-09-09T13:36:08;100514.19;;;17.41;100.00
50356;BME280;36264;51.296;-0.602;2022-09-09T13:38:56;100524.22;;;17.34;100.00
50356;BME280;36264;51.296;-0.602;2022-09-09T13:44:00;100517.97;;;17.37;100.00
50356;BME280;36264;51.296;-0.602;2022-09-09T13:46:37;100521.22;;;17.41;100.00
50356;BME280;36264;51.296;-0.602;2022-09-09T13:49:23;100525.53;;;17.42;100.00
50356;BME280;36264;51.296;-0.602;2022-09-09T13:52:09;100535.94;;;17.43;100.00
50356;BME280;36264;51.296;-0.602;2022-09-09T13:54:35;100518.06;;;17.35;100.00
50356;BME280;36264;51.296;-0.602;2022-09-09T13:57:00;100531.34;;;17.47;100.00
50356;BME280;36264;51.296;-0.602;2022-09-09T13:59:26;100533.28;;;17.58;100.00
50356;BME280;36264;51.296;-0.602;2022-09-09T14:01:52;100529.31;;;17.65;100.00
50356;BME280;36264;51.296;-0.602;2022-09-09T14:04:19;100530.53;;;17.73;100.00
50356;BME280;36264;51.296;-0.602;2022-09-09T14:06:47;100524.00;;;17.79;100.00
50356;BME280;36264;51.296;-0.602;2022-09-09T14:09:15;100531.22;;;17.90;100.00
50356;BME280;36264;51.296;-0.602;2022-09-09T14:11:41;100529.13;;;17.95;100.00
50356;BME280;36264;51.296;-0.602;2022-09-09T14:14:08;100527.38;;;17.96;100.00
50356;BME280;36264;51.296;-0.602;2022-09-09T14:16:33;100534.19;;;17.98;100.00
50356;BME280;36264;51.296;-0.602;2022-09-09T14:18:59;100532.94;;;17.91;100.00
50356;BME280;36264;51.296;-0.602;2022-09-09T14:21:25;100530.84;;;17.82;100.00
50356;BME280;36264;51.296;-0.602;2022-09-09T14:23:51;100539.19;;;17.61;100.00
50356;BME280;36264;51.296;-0.602;2022-09-09T14:26:21;100545.59;;;17.43;98.71
50356;BME280;36264;51.296;-0.602;2022-09-09T14:28:47;100538.00;;;17.38;100.00
50356;BME280;36264;51.296;-0.602;2022-09-09T14:31:13;100545.22;;;17.34;100.00
50356;BME280;36264;51.296;-0.602;2022-09-09T14:33:39;100540.06;;;17.33;100.00
50356;BME280;36264;51.296;-0.602;2022-09-09T14:36:05;100538.75;;;17.40;100.00
50356;BME280;36264;51.296;-0.602;2022-09-09T14:38:35;100539.47;;;17.56;100.00
50356;BME280;36264;51.296;-0.602;2022-09-09T14:41:15;100536.91;;;17.69;100.00
50356;BME280;36264;51.296;-0.602;2022-09-09T14:43:44;100543.06;;;17.83;100.00
50356;BME280;36264;51.296;-0.602;2022-09-09T14:46:14;100541.25;;;17.98;100.00
50356;BME280;36264;51.296;-0.602;2022-09-09T14:48:40;100536.53;;;18.03;100.00
50356;BME280;36264;51.296;-0.602;2022-09-09T14:51:18;100541.88;;;18.01;100.00
50356;BME280;36264;51.296;-0.602;2022-09-09T14:53:46;100542.63;;;18.03;100.00
50356;BME280;36264;51.296;-0.602;2022-09-09T14:56:13;100543.56;;;18.02;99.28
50356;BME280;36264;51.296;-0.602;2022-09-09T14:58:38;100533.56;;;17.95;97.69
50356;BME280;36264;51.296;-0.602;2022-09-09T15:01:05;100541.44;;;17.95;99.52
50356;BME280;36264;51.296;-0.602;2022-09-09T15:03:31;100537.97;;;17.94;99.69
50356;BME280;36264;51.296;-0.602;2022-09-09T15:05:56;100545.97;;;17.92;100.00
50356;BME280;36264;51.296;-0.602;2022-09-09T15:08:24;100537.22;;;17.92;99.01